Time;durP1;ratioP1;P1;durP2;ratioP2;P2;SDS_P1;SDS_P2;PMS_P1;PMS_P2;Temp;Humidity;BMP_temperature;BMP_pressure;BME280_temperature;BME280_humidity;BME280_pressure;Samples;Min_cycle;Max_cycle;Signal;HPM_P1;HPM_P2
2021/07/31 00:00:18;;;;;;;24.40;11.70;;;665.80;2432.00;;;;;;5044627;28;20174;-73
2021/07/31 00:02:45;;;;;;;17.13;11.55;;;665.70;2432.00;;;;;;5042568;28;20056;-78
2021/07/31 00:05:10;;;;;;;22.42;12.52;;;665.70;2432.00;;;;;;5056572;28;20020;-75
2021/07/31 00:07:37;;;;;;;25.95;13.10;;;;;;;;;;5055849;28;20024;-75
2021/07/31 00:10:03;;;;;;;20.40;12.23;;;665.60;2432.00;;;;;;5038490;28;20090;-75
2021/07/31 00:12:29;;;;;;;18.45;12.70;;;665.60;2432.00;;;;;;5056419;28;20023;-77
2021/07/31 00:14:55;;;;;;;18.98;11.52;;;665.60;2432.00;;;;;;5038163;28;20025;-76
2021/07/31 00:17:20;;;;;;;19.17;11.13;;;665.70;2432.00;;;;;;5038486;28;20108;-77
2021/07/31 00:19:46;;;;;;;16.13;12.18;;;665.70;2432.00;;;;;;5055702;28;20025;-75
2021/07/31 00:22:12;;;;;;;20.42;12.23;;;665.70;2432.00;;;;;;5038246;28;20017;-76
2021/07/31 00:24:38;;;;;;;21.15;12.10;;;640.90;2432.00;;;;;;5038212;28;20505;-74
2021/07/31 00:27:03;;;;;;;19.27;10.73;;;640.90;2432.00;;;;;;5037772;28;20590;-76
2021/07/31 00:29:29;;;;;;;17.83;11.80;;;640.90;2432.00;;;;;;5055782;28;20025;-75
2021/07/31 00:31:55;;;;;;;16.48;11.10;;;640.80;2432.00;;;;;;5038043;28;20017;-76
2021/07/31 00:34:21;;;;;;;19.52;10.98;;;640.80;2432.00;;;;;;5037692;28;20023;-74
2021/07/31 00:36:46;;;;;;;21.83;11.93;;;640.90;2432.00;;;;;;5055618;28;20025;-76
2021/07/31 00:39:12;;;;;;;18.95;12.00;;;640.90;2432.00;;;;;;5055780;28;20116;-77
2021/07/31 00:41:38;;;;;;;25.58;12.60;;;640.80;2432.00;;;;;;5037626;28;20037;-73
2021/07/31 00:44:04;;;;;;;20.45;11.88;;;640.90;2432.00;;;;;;5037838;28;20028;-73
2021/07/31 00:46:30;;;;;;;21.67;11.40;;;640.80;2432.00;;;;;;5055421;28;20100;-75
2021/07/31 00:48:56;;;;;;;19.35;11.40;;;640.50;2432.00;;;;;;5037395;28;20025;-75
2021/07/31 00:51:22;;;;;;;22.27;11.27;;;640.70;2432.00;;;;;;5055393;28;20074;-74
2021/07/31 00:53:49;;;;;;;17.65;11.50;;;640.40;2432.00;;;;;;5037755;28;20021;-76
2021/07/31 00:56:15;;;;;;;19.48;11.63;;;640.10;2432.00;;;;;;5037579;28;20027;-76
2021/07/31 00:58:43;;;;;;;23.85;12.02;;;640.10;2432.00;;;;;;5033824;28;20041;-77
2021/07/31 01:01:09;;;;;;;24.85;12.52;;;640.10;2432.00;;;;;;5034340;28;20032;-76
2021/07/31 01:03:35;;;;;;;19.00;12.02;;;640.20;2432.00;;;;;;5034833;28;20026;-76
2021/07/31 01:06:01;;;;;;;17.20;12.23;;;640.20;2432.00;;;;;;5035193;28;20463;-75
2021/07/31 01:08:27;;;;;;;18.45;11.38;;;640.10;2432.00;;;;;;5034143;28;20028;-76
2021/07/31 01:10:52;;;;;;;20.13;12.77;;;640.20;2432.00;;;;;;5033500;28;20025;-74
2021/07/31 01:13:19;;;;;;;23.73;14.73;;;640.20;2432.00;;;;;;5034103;28;20021;-75
2021/07/31 01:16:00;;;;;;;22.50;13.05;;;615.20;2432.00;;;;;;5033685;28;20025;-76
2021/07/31 01:18:26;;;;;;;20.33;13.37;;;615.30;2432.00;;;;;;5033907;28;20021;-76
2021/07/31 01:20:52;;;;;;;20.95;12.90;;;615.30;2432.00;;;;;;5035164;28;20075;-77
2021/07/31 01:23:19;;;;;;;24.17;14.45;;;640.10;2432.00;;;;;;5033479;28;20367;-74
2021/07/31 01:25:44;;;;;;;21.23;12.65;;;640.10;2432.00;;;;;;5033660;28;20075;-74
2021/07/31 01:28:10;;;;;;;23.17;13.23;;;640.00;2432.00;;;;;;5033615;28;20022;-77
2021/07/31 01:30:36;;;;;;;20.52;12.60;;;640.10;2432.00;;;;;;5034626;28;20068;-74
2021/07/31 01:33:02;;;;;;;26.95;13.20;;;640.20;2432.00;;;;;;5033479;28;20021;-75
2021/07/31 01:35:28;;;;;;;19.52;12.25;;;640.20;2432.00;;;;;;5033410;28;20029;-76
2021/07/31 01:37:53;;;;;;;20.83;13.10;;;640.20;2432.00;;;;;;5033029;28;20060;-75
2021/07/31 01:40:19;;;;;;;20.25;11.20;;;640.10;2432.00;;;;;;5033410;28;20083;-76
2021/07/31 01:42:45;;;;;;;18.27;11.98;;;640.10;2432.00;;;;;;5033468;28;20026;-75
2021/07/31 01:45:11;;;;;;;17.80;12.75;;;640.10;2432.00;;;;;;5033699;28;20548;-75
2021/07/31 01:47:37;;;;;;;22.95;12.27;;;640.20;2432.00;;;;;;5034615;28;20124;-75
2021/07/31 01:50:03;;;;;;;18.92;12.13;;;640.20;2432.00;;;;;;5037514;28;20078;-73
2021/07/31 01:52:29;;;;;;;17.15;11.50;;;640.20;2432.00;;;;;;5035652;28;20176;-73
2021/07/31 01:54:55;;;;;;;16.85;11.98;;;640.20;2432.00;;;;;;5036868;28;20019;-74
2021/07/31 01:57:21;;;;;;;17.90;12.80;;;640.20;2432.00;;;;;;5042949;28;20072;-74
2021/07/31 01:59:46;;;;;;;23.90;12.52;;;640.10;2432.00;;;;;;5035982;28;20124;-75
2021/07/31 02:02:12;;;;;;;21.45;12.73;;;615.30;2432.00;;;;;;5054225;28;20024;-75
2021/07/31 02:04:38;;;;;;;17.48;12.07;;;615.30;2432.00;;;;;;5036134;28;20079;-75
2021/07/31 02:07:04;;;;;;;18.73;12.30;;;615.20;2432.00;;;;;;5036189;28;20482;-73
2021/07/31 02:09:30;;;;;;;18.77;13.23;;;615.20;2432.00;;;;;;5036192;28;20413;-75
2021/07/31 02:11:55;;;;;;;18.73;12.93;;;614.90;2432.00;;;;;;5035898;28;20017;-75
2021/07/31 02:14:21;;;;;;;21.83;12.50;;;614.90;2432.00;;;;;;5036036;28;20063;-73
2021/07/31 02:16:48;;;;;;;19.23;12.95;;;615.30;2432.00;;;;;;5035689;28;20487;-75
2021/07/31 02:19:14;;;;;;;21.58;12.25;;;615.10;2432.00;;;;;;5035364;28;20077;-74
2021/07/31 02:21:40;;;;;;;17.23;11.88;;;615.10;2432.00;;;;;;5035930;28;20021;-75
2021/07/31 02:24:06;;;;;;;20.10;11.98;;;615.10;2432.00;;;;;;5035986;28;20021;-75
2021/07/31 02:26:31;;;;;;;20.23;12.63;;;615.10;2432.00;;;;;;5053552;28;20427;-74
2021/07/31 02:28:57;;;;;;;20.58;12.27;;;615.10;2432.00;;;;;;5035683;28;20021;-75
2021/07/31 02:31:23;;;;;;;17.98;12.63;;;615.00;2432.00;;;;;;5035377;28;20111;-75
2021/07/31 02:33:50;;;;;;;20.13;12.77;;;615.00;2432.00;;;;;;5052613;28;20446;-75
2021/07/31 02:36:15;;;;;;;20.77;13.30;;;614.90;2432.00;;;;;;5053567;28;20716;-73
2021/07/31 02:38:41;;;;;;;23.27;13.07;;;614.80;2432.00;;;;;;5035821;28;20029;-73
2021/07/31 02:41:07;;;;;;;19.65;12.85;;;614.60;2432.00;;;;;;5035425;28;20078;-72
2021/07/31 02:43:33;;;;;;;16.05;12.48;;;614.60;2432.00;;;;;;5035756;28;20025;-73
2021/07/31 02:46:07;;;;;;;18.58;13.52;;;614.70;2432.00;;;;;;5052919;28;20175;-74
2021/07/31 02:48:34;;;;;;;23.15;15.27;;;614.40;2432.00;;;;;;5052738;28;20457;-73
2021/07/31 02:51:08;;;;;;;18.52;12.85;;;589.60;2432.00;;;;;;5035185;28;20025;-75
2021/07/31 02:53:35;;;;;;;19.60;14.18;;;589.70;2432.00;;;;;;5053568;28;20216;-72
2021/07/31 02:56:01;;;;;;;24.33;13.85;;;589.70;2432.00;;;;;;5053776;28;20024;-75
2021/07/31 02:58:26;;;;;;;17.98;12.55;;;614.40;2432.00;;;;;;5034946;28;20045;-72
2021/07/31 03:00:53;;;;;;;21.27;12.27;;;614.50;2432.00;;;;;;5034760;28;20044;-73
2021/07/31 03:03:18;;;;;;;16.92;12.55;;;614.50;2432.00;;;;;;5036067;28;20028;-75
2021/07/31 03:05:55;;;;;;;20.38;13.20;;;614.50;2432.00;;;;;;5052864;28;20017;-77
2021/07/31 03:08:22;;;;;;;20.60;12.98;;;614.70;2432.00;;;;;;5053130;28;20106;-77
2021/07/31 03:11:03;;;;;;;18.20;13.13;;;614.70;2432.00;;;;;;5053064;28;20021;-73
2021/07/31 03:13:29;;;;;;;20.75;13.20;;;614.70;2432.00;;;;;;5053361;28;20018;-75
2021/07/31 03:15:55;;;;;;;16.73;12.07;;;614.80;2432.00;;;;;;5035073;28;20043;-75
2021/07/31 03:18:21;;;;;;;15.05;11.80;;;614.80;2432.00;;;;;;5035242;28;20021;-74
2021/07/31 03:20:49;;;;;;;17.05;12.45;;;614.80;2432.00;;;;;;5035425;28;20104;-73
2021/07/31 03:23:15;;;;;;;18.60;12.93;;;614.90;2432.00;;;;;;5035215;28;20025;-75
2021/07/31 03:25:42;;;;;;;16.17;11.93;;;615.20;2432.00;;;;;;5035418;28;20446;-73
2021/07/31 03:28:08;;;;;;;17.92;12.93;;;614.80;2432.00;;;;;;5037885;28;20076;-75
2021/07/31 03:30:38;;;;;;;21.25;13.20;;;614.80;2432.00;;;;;;5039055;28;20048;-76
2021/07/31 03:33:04;;;;;;;23.67;12.98;;;614.80;2432.00;;;;;;5039355;28;20021;-73
2021/07/31 03:35:29;;;;;;;19.23;12.73;;;614.70;2432.00;;;;;;5039163;28;20025;-75
2021/07/31 03:37:55;;;;;;;22.38;12.93;;;614.70;2432.00;;;;;;5056886;28;20025;-74
2021/07/31 03:40:21;;;;;;;18.35;13.45;;;614.80;2432.00;;;;;;5039354;28;20025;-72
2021/07/31 03:42:47;;;;;;;20.38;13.95;;;614.70;2432.00;;;;;;5057385;28;20025;-71
2021/07/31 03:45:12;;;;;;;21.90;13.85;;;614.60;2432.00;;;;;;5039199;28;20027;-74
2021/07/31 03:47:38;;;;;;;24.50;14.82;;;589.70;2432.00;;;;;;5057236;28;20154;-72
2021/07/31 03:50:04;;;;;;;23.15;13.45;;;614.40;2432.00;;;;;;5038931;28;20087;-73
2021/07/31 03:52:30;;;;;;;21.02;13.10;;;614.40;2432.00;;;;;;5039246;28;20028;-74
2021/07/31 03:54:56;;;;;;;18.45;12.80;;;589.70;2432.00;;;;;;5038935;28;20017;-73
2021/07/31 03:57:22;;;;;;;17.85;13.00;;;589.70;2432.00;;;;;;5038453;28;20052;-73
2021/07/31 03:59:47;;;;;;;23.00;13.38;;;589.70;2432.00;;;;;;5056772;28;20024;-74
2021/07/31 04:02:13;;;;;;;18.92;13.23;;;614.40;2432.00;;;;;;5039098;28;20528;-72
2021/07/31 04:04:39;;;;;;;19.38;12.73;;;614.50;2432.00;;;;;;5038367;28;20025;-74
2021/07/31 04:07:05;;;;;;;23.67;12.85;;;614.50;2432.00;;;;;;5038641;28;20027;-73
2021/07/31 04:09:31;;;;;;;25.55;13.55;;;614.40;2432.00;;;;;;5056188;28;20104;-74
2021/07/31 04:11:56;;;;;;;22.13;14.25;;;589.60;2432.00;;;;;;5038265;28;20017;-72
2021/07/31 04:14:22;;;;;;;25.30;14.23;;;589.70;2432.00;;;;;;5038405;28;20027;-74
2021/07/31 04:16:48;;;;;;;21.95;13.10;;;614.40;2432.00;;;;;;5038470;28;20397;-74
2021/07/31 04:19:14;;;;;;;22.08;13.95;;;589.60;2432.00;;;;;;5046034;28;20044;-71
2021/07/31 04:21:40;;;;;;;17.55;12.80;;;589.70;2432.00;;;;;;5055273;28;20106;-72
2021/07/31 04:24:05;;;;;;;23.45;12.77;;;589.60;2432.00;;;;;;5056000;28;20366;-72
2021/07/31 04:26:31;;;;;;;28.25;13.57;;;589.60;2432.00;;;;;;5055325;28;20093;-72
2021/07/31 04:28:57;;;;;;;26.55;15.05;;;589.70;2432.00;;;;;;5073077;28;20021;-73
2021/07/31 04:31:23;;;;;;;21.83;13.73;;;589.50;2432.00;;;;;;5045566;28;20017;-76
2021/07/31 04:33:53;;;;;;;19.30;12.57;;;589.50;2432.00;;;;;;5038158;28;20075;-76
2021/07/31 04:36:19;;;;;;;22.27;15.43;;;589.30;2432.00;;;;;;5056709;28;20096;-74
2021/07/31 04:38:45;;;;;;;21.38;14.73;;;589.70;2432.00;;;;;;5037852;28;20101;-75
2021/07/31 04:41:11;;;;;;;20.08;13.52;;;589.50;2432.00;;;;;;5056513;28;20483;-74
2021/07/31 04:43:37;;;;;;;21.38;13.02;;;589.70;2432.00;;;;;;5056190;28;20025;-73
2021/07/31 04:46:03;;;;;;;18.73;13.25;;;614.40;2432.00;;;;;;5038257;28;20151;-75
2021/07/31 04:48:29;;;;;;;17.90;12.57;;;614.50;2432.00;;;;;;5056318;28;20108;-73
2021/07/31 04:51:02;;;;;;;22.38;12.45;;;614.50;2432.00;;;;;;5055960;28;20433;-73
2021/07/31 04:53:29;;;;;;;20.33;12.88;;;614.70;2432.00;;;;;;5037676;28;20032;-74
2021/07/31 04:55:55;;;;;;;18.27;11.90;;;614.70;2432.00;;;;;;5037711;28;20523;-76
2021/07/31 04:58:22;;;;;;;25.50;13.52;;;614.80;2432.00;;;;;;5037304;28;20374;-71
2021/07/31 05:00:48;;;;;;;24.30;14.15;;;614.60;2432.00;;;;;;5037408;28;20020;-76
2021/07/31 05:03:14;;;;;;;21.65;14.07;;;614.60;2432.00;;;;;;5055462;28;20095;-73
2021/07/31 05:05:44;;;;;;;22.58;14.73;;;614.60;2432.00;;;;;;5055689;28;20486;-74
2021/07/31 05:08:10;;;;;;;22.42;12.98;;;614.60;2432.00;;;;;;5054777;28;20049;-75
2021/07/31 05:10:47;;;;;;;26.65;13.55;;;614.70;2432.00;;;;;;5037411;28;20036;-74
2021/07/31 05:13:14;;;;;;;27.80;13.95;;;614.70;2432.00;;;;;;5055015;28;20021;-73
2021/07/31 05:15:41;;;;;;;21.08;14.60;;;614.70;2432.00;;;;;;5036766;28;20078;-74
2021/07/31 05:18:08;;;;;;;24.73;15.32;;;614.70;2432.00;;;;;;5055523;28;20024;-74
2021/07/31 05:20:37;;;;;;;21.80;15.52;;;614.60;2432.00;;;;;;5054799;28;20078;-72
2021/07/31 05:23:03;;;;;;;24.95;16.17;;;614.60;2432.00;;;;;;5036985;28;20033;-75
2021/07/31 05:25:29;;;;;;;26.85;14.35;;;614.70;2432.00;;;;;;5055104;28;20017;-73
2021/07/31 05:27:55;;;;;;;26.40;13.95;;;614.70;2432.00;;;;;;5036537;28;20025;-74
2021/07/31 05:30:21;;;;;;;25.85;13.63;;;614.70;2432.00;;;;;;5037054;28;20034;-75
2021/07/31 05:32:47;;;;;;;19.90;13.15;;;614.80;2432.00;;;;;;5036965;28;20021;-74
2021/07/31 05:35:13;;;;;;;19.00;13.05;;;614.80;2432.00;;;;;;5036716;28;20032;-73
2021/07/31 05:37:39;;;;;;;19.83;14.25;;;614.80;2432.00;;;;;;5036911;28;20029;-72
2021/07/31 05:40:05;;;;;;;21.40;14.13;;;614.80;2432.00;;;;;;5054643;28;20454;-74
2021/07/31 05:42:31;;;;;;;22.83;13.93;;;614.60;2432.00;;;;;;5054021;28;20477;-74
2021/07/31 05:45:01;;;;;;;26.40;15.35;;;614.90;2432.00;;;;;;5037074;28;20028;-77
2021/07/31 05:47:28;;;;;;;21.02;13.77;;;614.80;2432.00;;;;;;5054508;28;20020;-72
2021/07/31 05:49:58;;;;;;;26.00;14.68;;;614.80;2432.00;;;;;;5053442;28;20196;-74
2021/07/31 05:52:28;;;;;;;22.20;13.73;;;614.90;2432.00;;;;;;5036614;28;20112;-75
2021/07/31 05:54:58;;;;;;;25.13;13.38;;;614.90;2432.00;;;;;;5036675;28;20257;-73
2021/07/31 05:57:24;;;;;;;18.60;13.10;;;615.30;2432.00;;;;;;5053955;28;20033;-73
2021/07/31 05:59:50;;;;;;;23.45;14.00;;;615.10;2432.00;;;;;;5036366;28;20124;-74
2021/07/31 06:02:16;;;;;;;21.00;13.45;;;615.10;2432.00;;;;;;5036472;28;20119;-74
2021/07/31 06:04:42;;;;;;;24.45;14.40;;;615.30;2432.00;;;;;;5036155;28;20032;-73
2021/07/31 06:07:10;;;;;;;30.75;15.77;;;640.10;2432.00;;;;;;5054269;28;20028;-75
2021/07/31 06:09:41;;;;;;;24.70;14.25;;;640.40;2432.00;;;;;;5035978;28;20025;-74
2021/07/31 06:12:08;;;;;;;17.02;13.63;;;640.60;2432.00;;;;;;5036306;28;20545;-75
2021/07/31 06:14:36;;;;;;;20.98;13.23;;;640.60;2432.00;;;;;;5036201;28;20409;-75
2021/07/31 06:17:02;;;;;;;24.88;14.02;;;640.70;2432.00;;;;;;5053721;28;20017;-74
2021/07/31 06:19:29;;;;;;;19.27;12.30;;;640.80;2432.00;;;;;;5036093;28;20519;-74
2021/07/31 06:21:55;;;;;;;21.08;13.32;;;640.80;2432.00;;;;;;5036023;28;20028;-76
2021/07/31 06:24:21;;;;;;;18.98;12.13;;;640.90;2432.00;;;;;;5035749;28;20025;-75
2021/07/31 06:26:47;;;;;;;17.77;12.68;;;665.70;2432.00;;;;;;5036051;28;20028;-73
2021/07/31 06:29:13;;;;;;;18.55;11.98;;;665.90;2432.00;;;;;;5036022;28;20078;-76
2021/07/31 06:31:39;;;;;;;21.55;12.50;;;665.90;2432.00;;;;;;5053533;28;20044;-75
2021/07/31 06:34:04;;;;;;;20.33;12.88;;;665.90;2432.00;;;;;;5035827;28;20108;-77
2021/07/31 06:36:30;;;;;;;25.88;14.02;;;666.00;2432.00;;;;;;5038079;28;20032;-75
2021/07/31 06:38:56;;;;;;;22.27;12.80;;;666.00;2432.00;;;;;;5055723;28;20052;-73
2021/07/31 06:41:22;;;;;;;24.90;12.98;;;666.00;2432.00;;;;;;5038671;28;20025;-73
2021/07/31 06:43:47;;;;;;;23.20;13.13;;;666.20;2432.00;;;;;;5036376;28;20028;-74
2021/07/31 06:46:18;;;;;;;20.50;13.10;;;666.30;2432.00;;;;;;5035391;28;20031;-75
2021/07/31 06:48:44;;;;;;;26.25;12.80;;;666.40;2432.00;;;;;;5035716;28;20056;-75
2021/07/31 06:51:11;;;;;;;28.25;14.10;;;666.50;2432.00;;;;;;5053449;28;20517;-76
2021/07/31 06:53:37;;;;;;;27.55;14.35;;;666.50;2432.00;;;;;;5053263;28;20117;-73
2021/07/31 06:56:03;;;;;;;21.23;13.70;;;691.20;2432.00;;;;;;5053277;28;20092;-74
2021/07/31 06:58:30;;;;;;;20.63;13.95;;;691.40;2432.00;;;;;;5053299;28;20048;-74
2021/07/31 07:00:55;;;;;;;17.20;11.52;;;691.50;2432.00;;;;;;5054310;28;20083;-73
2021/07/31 07:03:21;;;;;;;19.55;13.02;;;691.60;2432.00;;;;;;5060206;28;20474;-73
2021/07/31 07:05:48;;;;;;;21.20;12.57;;;691.60;2432.00;;;;;;5059773;28;20458;-75
2021/07/31 07:08:13;;;;;;;20.92;12.77;;;691.80;2432.00;;;;;;5059853;28;20370;-76
2021/07/31 07:10:39;;;;;;;21.73;12.80;;;691.90;2432.00;;;;;;5059655;28;20043;-76
2021/07/31 07:13:06;;;;;;;19.67;10.85;;;691.90;2432.00;;;;;;5041940;28;20025;-78
2021/07/31 07:15:32;;;;;;;22.00;13.27;;;692.00;2432.00;;;;;;5060028;28;20017;-77
2021/07/31 07:17:58;;;;;;;22.08;12.65;;;716.80;2432.00;;;;;;5042106;28;20032;-75
2021/07/31 07:20:27;;;;;;;20.50;13.10;;;717.00;2432.00;;;;;;5059745;28;20021;-76
2021/07/31 07:22:53;;;;;;;26.88;12.02;;;717.30;2432.00;;;;;;5060095;28;20047;-76
2021/07/31 07:25:19;;;;;;;16.35;11.60;;;717.40;2432.00;;;;;;5059512;28;20497;-74
2021/07/31 07:27:45;;;;;;;21.98;14.00;;;717.50;2432.00;;;;;;5059315;28;20017;-79
2021/07/31 07:30:11;;;;;;;18.85;12.45;;;742.40;2432.00;;;;;;5059430;28;20029;-78
2021/07/31 07:32:38;;;;;;;26.27;13.40;;;742.50;2432.00;;;;;;5041606;28;20438;-78
2021/07/31 07:35:05;;;;;;;23.48;12.43;;;742.50;2432.00;;;;;;5059305;28;20012;-76
2021/07/31 07:37:31;;;;;;;20.63;10.70;;;742.60;2432.00;;;;;;5041501;28;20020;-77
2021/07/31 07:39:59;;;;;;;24.83;11.60;;;742.50;2432.00;;;;;;5038801;28;20024;-78
2021/07/31 07:42:24;;;;;;;19.52;11.65;;;717.70;2432.00;;;;;;5040996;28;20465;-75
2021/07/31 07:44:50;;;;;;;19.05;11.15;;;742.90;2432.00;;;;;;5041629;28;20078;-73
2021/07/31 07:47:16;;;;;;;18.60;10.75;;;743.00;2432.00;;;;;;5041373;28;20025;-78
2021/07/31 07:49:42;;;;;;;26.55;16.63;;;743.10;2432.00;;;;;;5041189;28;20094;-77
2021/07/31 07:52:08;;;;;;;21.85;12.23;;;743.30;2432.00;;;;;;5059442;28;20027;-75
2021/07/31 07:54:33;;;;;;;22.95;12.05;;;768.00;2432.00;;;;;;5059123;28;20021;-75
2021/07/31 07:57:03;;;;;;;21.48;10.82;;;768.00;2432.00;;;;;;5041530;28;20047;-75
2021/07/31 07:59:29;;;;;;;21.20;12.65;;;768.20;2432.00;;;;;;5059333;28;20370;-76
2021/07/31 08:01:55;;;;;;;26.50;13.43;;;768.40;2432.00;;;;;;5041420;28;20035;-76
2021/07/31 08:04:21;;;;;;;21.90;13.30;;;768.60;2432.00;;;;;;5059977;28;20028;-77
2021/07/31 08:06:47;;;;;;;19.85;12.40;;;768.70;2432.00;;;;;;5040833;28;20025;-77
2021/07/31 08:09:12;;;;;;;24.33;11.75;;;768.80;2432.00;;;;;;5059034;28;20020;-76
2021/07/31 08:11:42;;;;;;;28.88;15.20;;;793.60;2432.00;;;;;;5041571;28;20025;-76
2021/07/31 08:14:08;;;;;;;21.23;11.05;;;793.70;2432.00;;;;;;5055727;28;20039;-77
2021/07/31 08:16:34;;;;;;;24.55;12.45;;;768.70;2432.00;;;;;;5038428;28;20446;-78
2021/07/31 08:19:01;;;;;;;27.67;13.90;;;793.70;2432.00;;;;;;5037057;28;20486;-76
2021/07/31 08:21:29;;;;;;;23.35;11.77;;;794.00;2432.00;;;;;;5037549;28;20052;-76
2021/07/31 08:23:55;;;;;;;23.73;12.13;;;794.00;2432.00;;;;;;5037508;28;20060;-76
2021/07/31 08:26:21;;;;;;;20.38;11.40;;;794.00;2432.00;;;;;;5037959;28;20104;-75
2021/07/31 08:28:46;;;;;;;24.58;10.77;;;794.40;2432.00;;;;;;5037970;28;20129;-76
2021/07/31 08:31:13;;;;;;;20.15;12.10;;;794.50;2432.00;;;;;;5037392;28;20020;-77
2021/07/31 08:33:39;;;;;;;18.52;11.93;;;794.50;2432.00;;;;;;5056010;28;20347;-76
2021/07/31 08:36:05;;;;;;;17.20;10.57;;;819.30;2432.00;;;;;;5038200;28;20472;-77
2021/07/31 08:38:31;;;;;;;23.75;12.07;;;819.20;2432.00;;;;;;5055501;28;20013;-76
2021/07/31 08:40:59;;;;;;;19.17;11.15;;;819.60;2432.00;;;;;;5038189;28;20025;-75
2021/07/31 08:43:25;;;;;;;17.65;9.98;;;819.70;2432.00;;;;;;5056177;28;20039;-77
2021/07/31 08:45:52;;;;;;;19.50;11.05;;;794.40;2432.00;;;;;;5037768;28;20074;-76
2021/07/31 08:48:18;;;;;;;22.80;12.00;;;819.30;2432.00;;;;;;5037899;28;20028;-76
2021/07/31 08:50:47;;;;;;;28.98;13.02;;;819.40;2432.00;;;;;;5055457;28;20036;-78
2021/07/31 08:53:12;;;;;;;19.88;11.70;;;819.80;2432.00;;;;;;5037923;28;20021;-77
2021/07/31 08:55:44;;;;;;;18.40;11.45;;;819.60;2432.00;;;;;;5037712;28;20029;-77
2021/07/31 08:58:10;;;;;;;23.08;11.48;;;819.60;2432.00;;;;;;5037458;28;20045;-77
2021/07/31 09:00:35;;;;;;;23.85;11.25;;;819.80;2432.00;;;;;;5037607;28;20350;-78
2021/07/31 09:03:01;;;;;;;22.77;10.95;;;820.00;2432.00;;;;;;5037602;28;20029;-78
2021/07/31 09:05:36;;;;;;;19.50;10.82;;;844.90;2432.00;;;;;;5037202;28;20048;-75
2021/07/31 09:08:03;;;;;;;20.17;10.32;;;845.10;2432.00;;;;;;5037400;28;20044;-74
2021/07/31 09:10:31;;;;;;;19.55;10.48;;;845.40;2432.00;;;;;;5055679;28;20031;-75
2021/07/31 09:13:12;;;;;;;15.90;9.77;;;845.50;2406.40;;;;;;5055009;28;20024;-76
2021/07/31 09:15:39;;;;;;;17.92;9.60;;;845.40;2406.40;;;;;;5038432;28;20588;-79
2021/07/31 09:18:22;;;;;;;19.80;10.40;;;845.70;2380.80;;;;;;5037599;28;20033;-77
2021/07/31 09:21:12;;;;;;;21.05;11.32;;;845.60;2355.20;;;;;;5037050;28;20347;-78
2021/07/31 09:23:49;;;;;;;13.82;8.73;;;845.70;2406.40;;;;;;5037688;28;20473;-77
2021/07/31 09:26:26;;;;;;;20.17;10.40;;;845.60;2355.20;;;;;;5054039;28;20466;-77
2021/07/31 09:29:04;;;;;;;19.05;11.07;;;870.40;2406.40;;;;;;5037350;28;20056;-77
2021/07/31 09:31:31;;;;;;;15.23;8.95;;;870.60;2380.80;;;;;;5036967;28;20025;-77
2021/07/31 09:34:03;;;;;;;19.25;9.70;;;870.80;2278.40;;;;;;5036717;28;20021;-77
2021/07/31 09:36:44;;;;;;;17.50;9.43;;;870.60;2252.80;;;;;;5037274;28;20442;-78
2021/07/31 09:39:11;;;;;;;18.08;10.38;;;870.50;2227.20;;;;;;5037046;28;20033;-76
2021/07/31 09:41:41;;;;;;;16.13;8.55;;;870.90;2252.80;;;;;;5054230;28;20083;-76
2021/07/31 09:44:15;;;;;;;20.88;9.40;;;870.90;2201.60;;;;;;5054561;28;20052;-77
2021/07/31 09:46:45;;;;;;;21.50;10.23;;;871.10;2227.20;;;;;;5054500;28;20446;-78
2021/07/31 09:49:20;;;;;;;17.90;9.18;;;896.00;2150.40;;;;;;5039138;28;20025;-76
2021/07/31 09:51:51;;;;;;;18.30;8.07;;;871.30;2124.80;;;;;;5056837;28;20017;-76
2021/07/31 09:54:21;;;;;;;15.45;8.27;;;871.20;2073.60;;;;;;5037054;28;20454;-76
2021/07/31 09:56:50;;;;;;;20.23;9.38;;;871.20;2073.60;;;;;;5036384;28;20482;-77
2021/07/31 09:59:18;;;;;;;18.20;9.52;;;896.10;2048.00;;;;;;5036491;28;20119;-77
2021/07/31 10:02:03;;;;;;;12.57;8.70;;;896.60;2048.00;;;;;;5054312;28;20028;-75
2021/07/31 10:04:33;;;;;;;17.50;8.57;;;896.50;1971.20;;;;;;5055921;28;20079;-75
2021/07/31 10:07:04;;;;;;;17.80;8.55;;;896.80;1996.80;;;;;;5057985;28;20024;-75
2021/07/31 10:09:31;;;;;;;19.13;8.45;;;896.60;1971.20;;;;;;5058236;28;20083;-77
2021/07/31 10:11:58;;;;;;;16.50;8.55;;;896.50;1971.20;;;;;;5055695;28;20028;-76
2021/07/31 10:14:25;;;;;;;22.33;9.75;;;896.80;1920.00;;;;;;5037994;28;20047;-76
2021/07/31 10:16:51;;;;;;;17.77;9.43;;;921.70;1996.80;;;;;;5038002;28;20042;-79
2021/07/31 10:19:18;;;;;;;16.17;8.82;;;896.80;1920.00;;;;;;5056976;28;20028;-76
2021/07/31 10:21:52;;;;;;;17.30;9.27;;;896.80;1894.40;;;;;;5035945;28;20047;-75
2021/07/31 10:24:19;;;;;;;19.75;8.40;;;921.80;1945.60;;;;;;5037017;28;20032;-76
2021/07/31 10:27:15;;;;;;;19.52;8.73;;;922.30;1843.20;;;;;;5039328;28;20044;-74
2021/07/31 10:29:46;;;;;;;11.68;8.48;;;922.30;1868.80;;;;;;5039270;28;20067;-76
2021/07/31 10:32:35;;;;;;;18.13;8.83;;;922.10;1843.20;;;;;;5036827;28;20017;-77
2021/07/31 10:35:06;;;;;;;18.30;8.35;;;922.30;1817.60;;;;;;5053619;28;20017;-77
2021/07/31 10:37:34;;;;;;;15.50;10.20;;;922.40;1817.60;;;;;;5035230;28;20021;-77
2021/07/31 10:40:08;;;;;;;19.88;9.80;;;922.50;1894.40;;;;;;5035781;28;20037;-76
2021/07/31 10:42:52;;;;;;;19.45;9.02;;;947.20;1792.00;;;;;;5053752;28;20044;-76
2021/07/31 10:45:28;;;;;;;17.10;9.05;;;947.40;1792.00;;;;;;5035879;28;20025;-76
2021/07/31 10:48:06;;;;;;;18.98;8.23;;;947.70;1817.60;;;;;;5034745;28;20024;-76
2021/07/31 10:50:31;;;;;;;14.23;7.70;;;947.80;1740.80;;;;;;5037365;28;20029;-74
2021/07/31 10:53:12;;;;;;;20.85;10.60;;;947.80;1740.80;;;;;;5030872;28;20083;-75
2021/07/31 10:55:38;;;;;;;19.02;12.43;;;948.10;1766.40;;;;;;5034560;28;20025;-76
2021/07/31 10:58:13;;;;;;;18.73;9.50;;;972.80;1792.00;;;;;;5051994;28;20037;-77
2021/07/31 11:00:52;;;;;;;18.85;10.52;;;972.90;1792.00;;;;;;5034703;28;20070;-76
2021/07/31 11:03:21;;;;;;;19.30;9.82;;;973.10;1792.00;;;;;;5052666;28;20013;-74
2021/07/31 11:05:55;;;;;;;19.08;9.13;;;973.20;1766.40;;;;;;5034514;28;20066;-76
2021/07/31 11:08:26;;;;;;;18.60;8.77;;;973.40;1740.80;;;;;;5052670;28;20052;-77
2021/07/31 11:10:57;;;;;;;17.03;10.23;;;973.30;1715.20;;;;;;5035625;28;20017;-76
2021/07/31 11:13:22;;;;;;;17.45;7.47;;;973.30;1740.80;;;;;;5039519;28;20273;-74
2021/07/31 11:16:04;;;;;;;14.82;8.75;;;973.50;1715.20;;;;;;5041029;28;20378;-74
2021/07/31 11:18:32;;;;;;;;;;;973.50;1740.80;;;;;;5041225;28;20025;-74
2021/07/31 11:21:13;;;;;;;17.45;9.45;;;973.70;1740.80;;;;;;5040515;28;19908;-74
2021/07/31 11:23:55;;;;;;;18.83;8.63;;;973.70;1715.20;;;;;;5057350;28;20041;-74
2021/07/31 11:26:46;;;;;;;20.75;8.68;;;998.60;1715.20;;;;;;5056532;28;20028;-75
2021/07/31 11:29:26;;;;;;;36.67;11.60;;;973.40;1689.60;;;;;;5053795;28;20504;-75
2021/07/31 11:32:01;;;;;;;42.07;12.70;;;973.50;1689.60;;;;;;5053117;28;20025;-75
2021/07/31 11:34:27;;;;;;;43.20;13.77;;;998.40;1740.80;;;;;;5035109;28;20260;-75
2021/07/31 11:36:58;;;;;;;25.83;10.48;;;998.40;1766.40;;;;;;5036132;28;20017;-74
2021/07/31 11:39:25;;;;;;;21.17;9.35;;;998.40;1664.00;;;;;;5048295;28;20048;-74
2021/07/31 11:41:51;;;;;;;23.20;10.77;;;973.30;1689.60;;;;;;5047674;28;20443;-74
2021/07/31 11:44:27;;;;;;;15.52;8.88;;;998.70;1715.20;;;;;;5041212;28;20044;-74
2021/07/31 11:46:54;;;;;;;21.52;9.18;;;998.90;1689.60;;;;;;5057091;28;20029;-74
2021/07/31 11:49:30;;;;;;;15.73;8.20;;;998.90;1664.00;;;;;;5042359;28;20021;-73
2021/07/31 11:51:58;;;;;;;14.80;7.68;;;973.60;1689.60;;;;;;5045258;28;20025;-76
2021/07/31 11:54:25;;;;;;;16.75;8.48;;;973.60;1689.60;;;;;;5039223;28;20021;-75
2021/07/31 11:56:51;;;;;;;19.38;8.20;;;973.70;1638.40;;;;;;5038413;28;20037;-74
2021/07/31 11:59:31;;;;;;;20.08;8.57;;;998.70;1689.60;;;;;;5057000;28;20028;-75
2021/07/31 12:01:57;;;;;;;21.70;8.43;;;998.90;1638.40;;;;;;5040496;28;20083;-74
2021/07/31 12:04:50;;;;;;;14.50;8.95;;;998.80;1638.40;;;;;;5039354;28;20024;-75